sensor_id;sensor_type;location;lat;lon;timestamp;P1;durP1;ratioP1;P2;durP2;ratioP2
20314;SDS011;10315;50.958;13.080;2023-06-22T00:05:43;17.60;;;11.65;;
20314;SDS011;10315;50.958;13.080;2023-06-22T00:15:44;18.42;;;11.20;;
20314;SDS011;10315;50.958;13.080;2023-06-22T00:25:47;19.17;;;12.30;;
20314;SDS011;10315;50.958;13.080;2023-06-22T00:35:49;20.10;;;13.35;;
20314;SDS011;10315;50.958;13.080;2023-06-22T00:45:54;18.10;;;12.00;;
20314;SDS011;10315;50.958;13.080;2023-06-22T00:55:57;17.98;;;11.38;;
20314;SDS011;10315;50.958;13.080;2023-06-22T01:06:02;21.42;;;11.75;;
20314;SDS011;10315;50.958;13.080;2023-06-22T01:16:10;23.00;;;11.88;;
20314;SDS011;10315;50.958;13.080;2023-06-22T01:26:19;13.98;;;9.90;;
20314;SDS011;10315;50.958;13.080;2023-06-22T01:36:29;15.50;;;10.30;;
20314;SDS011;10315;50.958;13.080;2023-06-22T01:46:33;20.60;;;11.15;;
20314;SDS011;10315;50.958;13.080;2023-06-22T01:56:37;17.45;;;10.70;;
20314;SDS011;10315;50.958;13.080;2023-06-22T02:06:39;17.83;;;12.00;;
20314;SDS011;10315;50.958;13.080;2023-06-22T02:16:46;19.05;;;11.88;;
20314;SDS011;10315;50.958;13.080;2023-06-22T02:26:48;16.65;;;11.20;;
20314;SDS011;10315;50.958;13.080;2023-06-22T02:36:51;22.35;;;12.07;;
20314;SDS011;10315;50.958;13.080;2023-06-22T02:46:53;17.20;;;10.02;;
20314;SDS011;10315;50.958;13.080;2023-06-22T02:56:56;19.38;;;12.57;;
20314;SDS011;10315;50.958;13.080;2023-06-22T03:06:58;20.42;;;11.32;;
20314;SDS011;10315;50.958;13.080;2023-06-22T03:17:03;16.35;;;10.63;;
20314;SDS011;10315;50.958;13.080;2023-06-22T03:27:06;19.08;;;12.05;;
20314;SDS011;10315;50.958;13.080;2023-06-22T03:37:09;19.90;;;12.52;;
20314;SDS011;10315;50.958;13.080;2023-06-22T03:47:12;15.32;;;10.68;;
20314;SDS011;10315;50.958;13.080;2023-06-22T03:57:21;15.00;;;10.75;;
20314;SDS011;10315;50.958;13.080;2023-06-22T04:07:24;16.08;;;10.15;;
20314;SDS011;10315;50.958;13.080;2023-06-22T04:17:27;20.02;;;11.27;;
20314;SDS011;10315;50.958;13.080;2023-06-22T04:27:29;22.48;;;11.43;;
20314;SDS011;10315;50.958;13.080;2023-06-22T04:37:32;20.73;;;12.43;;
20314;SDS011;10315;50.958;13.080;2023-06-22T04:47:33;21.17;;;12.75;;
20314;SDS011;10315;50.958;13.080;2023-06-22T04:57:40;17.02;;;10.15;;
20314;SDS011;10315;50.958;13.080;2023-06-22T05:07:45;15.30;;;9.50;;
20314;SDS011;10315;50.958;13.080;2023-06-22T05:17:49;14.80;;;10.10;;
20314;SDS011;10315;50.958;13.080;2023-06-22T05:27:51;15.48;;;8.80;;
20314;SDS011;10315;50.958;13.080;2023-06-22T05:37:54;15.25;;;9.50;;
20314;SDS011;10315;50.958;13.080;2023-06-22T05:47:56;12.85;;;8.60;;
20314;SDS011;10315;50.958;13.080;2023-06-22T05:57:59;14.23;;;9.18;;
20314;SDS011;10315;50.958;13.080;2023-06-22T06:08:01;12.45;;;8.25;;
20314;SDS011;10315;50.958;13.080;2023-06-22T06:18:06;13.57;;;8.48;;
20314;SDS011;10315;50.958;13.080;2023-06-22T06:28:07;12.02;;;7.15;;
20314;SDS011;10315;50.958;13.080;2023-06-22T06:38:10;8.77;;;6.47;;
20314;SDS011;10315;50.958;13.080;2023-06-22T06:48:12;6.95;;;6.07;;
20314;SDS011;10315;50.958;13.080;2023-06-22T06:58:15;10.02;;;6.43;;
20314;SDS011;10315;50.958;13.080;2023-06-22T07:08:16;11.95;;;7.53;;
20314;SDS011;10315;50.958;13.080;2023-06-22T07:18:19;7.25;;;6.55;;
20314;SDS011;10315;50.958;13.080;2023-06-22T07:28:21;7.90;;;6.75;;
20314;SDS011;10315;50.958;13.080;2023-06-22T07:38:24;9.63;;;6.63;;
20314;SDS011;10315;50.958;13.080;2023-06-22T07:48:25;10.23;;;7.05;;
20314;SDS011;10315;50.958;13.080;2023-06-22T07:58:28;9.68;;;7.05;;
20314;SDS011;10315;50.958;13.080;2023-06-22T08:08:30;7.47;;;5.88;;
20314;SDS011;10315;50.958;13.080;2023-06-22T08:18:33;6.80;;;6.18;;
20314;SDS011;10315;50.958;13.080;2023-06-22T08:28:34;7.13;;;6.43;;
20314;SDS011;10315;50.958;13.080;2023-06-22T08:38:37;8.35;;;6.45;;
20314;SDS011;10315;50.958;13.080;2023-06-22T08:48:39;6.88;;;6.28;;
20314;SDS011;10315;50.958;13.080;2023-06-22T08:58:42;7.47;;;6.03;;
20314;SDS011;10315;50.958;13.080;2023-06-22T09:08:43;9.45;;;6.38;;
20314;SDS011;10315;50.958;13.080;2023-06-22T09:18:50;6.30;;;5.70;;
20314;SDS011;10315;50.958;13.080;2023-06-22T09:28:51;7.70;;;6.68;;
20314;SDS011;10315;50.958;13.080;2023-06-22T09:38:54;7.93;;;6.32;;
20314;SDS011;10315;50.958;13.080;2023-06-22T09:48:58;7.68;;;6.80;;
20314;SDS011;10315;50.958;13.080;2023-06-22T09:59:01;7.43;;;6.50;;
20314;SDS011;10315;50.958;13.080;2023-06-22T10:09:04;11.27;;;7.05;;
20314;SDS011;10315;50.958;13.080;2023-06-22T10:19:07;13.50;;;7.03;;
20314;SDS011;10315;50.958;13.080;2023-06-22T10:29:08;8.90;;;7.18;;
20314;SDS011;10315;50.958;13.080;2023-06-22T10:39:11;8.45;;;6.32;;
20314;SDS011;10315;50.958;13.080;2023-06-22T10:49:13;9.45;;;7.00;;
20314;SDS011;10315;50.958;13.080;2023-06-22T10:59:16;8.75;;;7.63;;
20314;SDS011;10315;50.958;13.080;2023-06-22T11:09:17;9.10;;;7.28;;
20314;SDS011;10315;50.958;13.080;2023-06-22T11:19:22;8.63;;;7.50;;
20314;SDS011;10315;50.958;13.080;2023-06-22T11:29:24;8.75;;;7.65;;
20314;SDS011;10315;50.958;13.080;2023-06-22T11:39:27;10.38;;;8.10;;
20314;SDS011;10315;50.958;13.080;2023-06-22T11:49:28;10.98;;;7.93;;
20314;SDS011;10315;50.958;13.080;2023-06-22T11:59:32;9.93;;;7.70;;
20314;SDS011;10315;50.958;13.080;2023-06-22T12:09:33;11.65;;;8.38;;
20314;SDS011;10315;50.958;13.080;2023-06-22T12:19:36;9.40;;;7.65;;
20314;SDS011;10315;50.958;13.080;2023-06-22T12:29:38;9.70;;;7.82;;
20314;SDS011;10315;50.958;13.080;2023-06-22T12:39:41;9.13;;;7.28;;
20314;SDS011;10315;50.958;13.080;2023-06-22T12:49:42;7.93;;;7.13;;
20314;SDS011;10315;50.958;13.080;2023-06-22T12:59:45;10.52;;;7.82;;
20314;SDS011;10315;50.958;13.080;2023-06-22T13:09:47;11.23;;;8.30;;
20314;SDS011;10315;50.958;13.080;2023-06-22T13:19:52;10.88;;;7.55;;
20314;SDS011;10315;50.958;13.080;2023-06-22T13:29:54;9.13;;;7.03;;
20314;SDS011;10315;50.958;13.080;2023-06-22T13:39:57;10.30;;;7.80;;
20314;SDS011;10315;50.958;13.080;2023-06-22T13:49:59;10.20;;;7.43;;
20314;SDS011;10315;50.958;13.080;2023-06-22T14:00:02;9.10;;;7.18;;
20314;SDS011;10315;50.958;13.080;2023-06-22T14:10:05;9.80;;;7.20;;
20314;SDS011;10315;50.958;13.080;2023-06-22T14:20:09;9.85;;;7.07;;
20314;SDS011;10315;50.958;13.080;2023-06-22T14:30:11;9.63;;;7.45;;
20314;SDS011;10315;50.958;13.080;2023-06-22T14:40:14;13.10;;;7.60;;
20314;SDS011;10315;50.958;13.080;2023-06-22T14:50:16;9.02;;;6.50;;
20314;SDS011;10315;50.958;13.080;2023-06-22T15:00:20;8.90;;;6.00;;
20314;SDS011;10315;50.958;13.080;2023-06-22T15:10:21;8.25;;;6.90;;
20314;SDS011;10315;50.958;13.080;2023-06-22T15:20:25;11.10;;;7.05;;
20314;SDS011;10315;50.958;13.080;2023-06-22T15:30:27;10.95;;;6.93;;
20314;SDS011;10315;50.958;13.080;2023-06-22T15:40:30;7.97;;;6.60;;
20314;SDS011;10315;50.958;13.080;2023-06-22T15:50:32;9.77;;;6.82;;
20314;SDS011;10315;50.958;13.080;2023-06-22T16:00:35;10.77;;;6.63;;
20314;SDS011;10315;50.958;13.080;2023-06-22T16:10:36;11.45;;;7.25;;
20314;SDS011;10315;50.958;13.080;2023-06-22T16:20:40;9.23;;;7.20;;
20314;SDS011;10315;50.958;13.080;2023-06-22T16:30:42;13.75;;;7.25;;
20314;SDS011;10315;50.958;13.080;2023-06-22T16:40:45;8.57;;;7.22;;
20314;SDS011;10315;50.958;13.080;2023-06-22T16:50:46;12.20;;;8.00;;
20314;SDS011;10315;50.958;13.080;2023-06-22T17:00:49;13.52;;;7.75;;
20314;SDS011;10315;50.958;13.080;2023-06-22T17:10:51;10.40;;;7.47;;
20314;SDS011;10315;50.958;13.080;2023-06-22T17:20:54;12.30;;;7.68;;
20314;SDS011;10315;50.958;13.080;2023-06-22T17:31:07;10.00;;;7.97;;
20314;SDS011;10315;50.958;13.080;2023-06-22T17:41:11;12.80;;;7.85;;
20314;SDS011;10315;50.958;13.080;2023-06-22T17:51:15;11.18;;;7.28;;
20314;SDS011;10315;50.958;13.080;2023-06-22T18:01:26;9.63;;;8.07;;
20314;SDS011;10315;50.958;13.080;2023-06-22T18:11:30;8.35;;;7.38;;
20314;SDS011;10315;50.958;13.080;2023-06-22T18:21:36;8.60;;;7.75;;
20314;SDS011;10315;50.958;13.080;2023-06-22T18:31:38;12.43;;;8.18;;
20314;SDS011;10315;50.958;13.080;2023-06-22T18:41:41;11.80;;;8.35;;
20314;SDS011;10315;50.958;13.080;2023-06-22T18:51:49;11.40;;;8.68;;
20314;SDS011;10315;50.958;13.080;2023-06-22T19:01:53;16.00;;;9.20;;
20314;SDS011;10315;50.958;13.080;2023-06-22T19:22:24;15.48;;;9.80;;
20314;SDS011;10315;50.958;13.080;2023-06-22T19:32:47;12.18;;;8.75;;
20314;SDS011;10315;50.958;13.080;2023-06-22T19:42:52;12.65;;;9.23;;
20314;SDS011;10315;50.958;13.080;2023-06-22T19:52:55;15.63;;;9.05;;
20314;SDS011;10315;50.958;13.080;2023-06-22T20:02:58;14.75;;;9.65;;
20314;SDS011;10315;50.958;13.080;2023-06-22T20:13:00;12.63;;;8.93;;
20314;SDS011;10315;50.958;13.080;2023-06-22T20:23:05;11.73;;;9.15;;
20314;SDS011;10315;50.958;13.080;2023-06-22T20:33:13;16.20;;;9.25;;
20314;SDS011;10315;50.958;13.080;2023-06-22T20:43:18;10.70;;;9.35;;
20314;SDS011;10315;50.958;13.080;2023-06-22T20:53:21;16.30;;;9.73;;
20314;SDS011;10315;50.958;13.080;2023-06-22T21:03:24;14.73;;;9.93;;
20314;SDS011;10315;50.958;13.080;2023-06-22T21:13:26;19.33;;;10.32;;
20314;SDS011;10315;50.958;13.080;2023-06-22T21:23:31;32.67;;;14.40;;
20314;SDS011;10315;50.958;13.080;2023-06-22T21:33:33;22.83;;;12.60;;
20314;SDS011;10315;50.958;13.080;2023-06-22T21:43:35;25.80;;;15.93;;
20314;SDS011;10315;50.958;13.080;2023-06-22T21:53:37;26.10;;;16.15;;
20314;SDS011;10315;50.958;13.080;2023-06-22T22:03:40;24.23;;;15.05;;
20314;SDS011;10315;50.958;13.080;2023-06-22T22:13:43;24.85;;;9.55;;
20314;SDS011;10315;50.958;13.080;2023-06-22T22:23:45;31.33;;;9.75;;
20314;SDS011;10315;50.958;13.080;2023-06-22T22:33:47;26.02;;;4.32;;
20314;SDS011;10315;50.958;13.080;2023-06-22T22:43:50;18.73;;;5.35;;
20314;SDS011;10315;50.958;13.080;2023-06-22T22:53:52;6.88;;;3.85;;
20314;SDS011;10315;50.958;13.080;2023-06-22T23:03:55;15.27;;;4.88;;
20314;SDS011;10315;50.958;13.080;2023-06-22T23:13:56;16.40;;;4.88;;
20314;SDS011;10315;50.958;13.080;2023-06-22T23:23:59;17.83;;;6.22;;
20314;SDS011;10315;50.958;13.080;2023-06-22T23:34:03;13.90;;;5.95;;
20314;SDS011;10315;50.958;13.080;2023-06-22T23:44:09;21.60;;;5.90;;
20314;SDS011;10315;50.958;13.080;2023-06-22T23:54:10;16.50;;;6.35;;
